sensor_id;sensor_type;location;lat;lon;timestamp;P1;durP1;ratioP1;P2;durP2;ratioP2
11189;SDS011;5651;50.926;4.718;2022-07-15T00:00:08;8.75;;;4.00;;
11189;SDS011;5651;50.926;4.718;2022-07-15T00:02:36;10.73;;;4.10;;
11189;SDS011;5651;50.926;4.718;2022-07-15T00:05:03;8.55;;;4.45;;
11189;SDS011;5651;50.926;4.718;2022-07-15T00:07:30;8.43;;;4.20;;
11189;SDS011;5651;50.926;4.718;2022-07-15T00:09:57;8.98;;;4.20;;
11189;SDS011;5651;50.926;4.718;2022-07-15T00:15:07;12.00;;;4.93;;
11189;SDS011;5651;50.926;4.718;2022-07-15T00:17:34;7.35;;;3.92;;
11189;SDS011;5651;50.926;4.718;2022-07-15T00:20:00;9.02;;;4.10;;
11189;SDS011;5651;50.926;4.718;2022-07-15T00:22:26;11.30;;;4.40;;
11189;SDS011;5651;50.926;4.718;2022-07-15T00:24:52;9.52;;;4.22;;
11189;SDS011;5651;50.926;4.718;2022-07-15T00:27:17;9.30;;;3.70;;
11189;SDS011;5651;50.926;4.718;2022-07-15T00:29:43;12.68;;;5.68;;
11189;SDS011;5651;50.926;4.718;2022-07-15T00:32:09;8.52;;;4.85;;
11189;SDS011;5651;50.926;4.718;2022-07-15T00:34:35;8.95;;;5.13;;
11189;SDS011;5651;50.926;4.718;2022-07-15T00:37:01;6.38;;;4.30;;
11189;SDS011;5651;50.926;4.718;2022-07-15T00:39:26;10.85;;;5.85;;
11189;SDS011;5651;50.926;4.718;2022-07-15T00:41:52;7.40;;;4.10;;
11189;SDS011;5651;50.926;4.718;2022-07-15T00:44:18;8.07;;;4.55;;
11189;SDS011;5651;50.926;4.718;2022-07-15T00:46:44;7.25;;;4.47;;
11189;SDS011;5651;50.926;4.718;2022-07-15T00:49:10;10.70;;;4.38;;
11189;SDS011;5651;50.926;4.718;2022-07-15T00:51:43;9.68;;;4.72;;
11189;SDS011;5651;50.926;4.718;2022-07-15T00:54:12;6.85;;;4.28;;
11189;SDS011;5651;50.926;4.718;2022-07-15T00:56:57;8.88;;;4.05;;
11189;SDS011;5651;50.926;4.718;2022-07-15T00:59:25;10.73;;;4.35;;
11189;SDS011;5651;50.926;4.718;2022-07-15T01:01:56;11.40;;;4.80;;
11189;SDS011;5651;50.926;4.718;2022-07-15T01:04:22;9.50;;;3.88;;
11189;SDS011;5651;50.926;4.718;2022-07-15T01:06:49;7.97;;;4.00;;
11189;SDS011;5651;50.926;4.718;2022-07-15T01:09:15;9.60;;;4.18;;
11189;SDS011;5651;50.926;4.718;2022-07-15T01:11:40;11.55;;;4.07;;
11189;SDS011;5651;50.926;4.718;2022-07-15T01:14:06;8.52;;;4.47;;
11189;SDS011;5651;50.926;4.718;2022-07-15T01:16:32;11.55;;;4.10;;
11189;SDS011;5651;50.926;4.718;2022-07-15T01:18:58;9.45;;;4.85;;
11189;SDS011;5651;50.926;4.718;2022-07-15T01:21:23;10.77;;;4.40;;
11189;SDS011;5651;50.926;4.718;2022-07-15T01:23:49;11.00;;;4.45;;
11189;SDS011;5651;50.926;4.718;2022-07-15T01:26:15;9.70;;;4.82;;
11189;SDS011;5651;50.926;4.718;2022-07-15T01:28:41;12.32;;;5.00;;
11189;SDS011;5651;50.926;4.718;2022-07-15T01:31:08;11.60;;;4.72;;
11189;SDS011;5651;50.926;4.718;2022-07-15T01:33:34;8.85;;;4.40;;
11189;SDS011;5651;50.926;4.718;2022-07-15T01:36:00;11.05;;;4.80;;
11189;SDS011;5651;50.926;4.718;2022-07-15T01:38:26;9.02;;;4.43;;
11189;SDS011;5651;50.926;4.718;2022-07-15T01:40:53;8.00;;;4.20;;
11189;SDS011;5651;50.926;4.718;2022-07-15T01:43:19;8.35;;;4.15;;
11189;SDS011;5651;50.926;4.718;2022-07-15T01:45:46;6.72;;;4.32;;
11189;SDS011;5651;50.926;4.718;2022-07-15T01:48:12;9.25;;;4.38;;
11189;SDS011;5651;50.926;4.718;2022-07-15T01:50:57;9.98;;;4.68;;
11189;SDS011;5651;50.926;4.718;2022-07-15T01:53:25;14.38;;;5.03;;
11189;SDS011;5651;50.926;4.718;2022-07-15T01:55:52;10.30;;;4.97;;
11189;SDS011;5651;50.926;4.718;2022-07-15T01:58:19;9.88;;;5.20;;
11189;SDS011;5651;50.926;4.718;2022-07-15T02:00:45;13.35;;;5.57;;
11189;SDS011;5651;50.926;4.718;2022-07-15T02:03:11;10.52;;;5.18;;
11189;SDS011;5651;50.926;4.718;2022-07-15T02:05:38;7.90;;;4.55;;
11189;SDS011;5651;50.926;4.718;2022-07-15T02:08:04;11.50;;;4.78;;
11189;SDS011;5651;50.926;4.718;2022-07-15T02:10:30;10.30;;;5.82;;
11189;SDS011;5651;50.926;4.718;2022-07-15T02:13:09;10.15;;;5.13;;
11189;SDS011;5651;50.926;4.718;2022-07-15T02:15:37;10.63;;;4.80;;
11189;SDS011;5651;50.926;4.718;2022-07-15T02:18:03;9.18;;;4.65;;
11189;SDS011;5651;50.926;4.718;2022-07-15T02:20:30;9.02;;;4.65;;
11189;SDS011;5651;50.926;4.718;2022-07-15T02:22:56;10.23;;;4.72;;
11189;SDS011;5651;50.926;4.718;2022-07-15T02:25:24;9.10;;;5.40;;
11189;SDS011;5651;50.926;4.718;2022-07-15T02:27:55;9.45;;;4.65;;
11189;SDS011;5651;50.926;4.718;2022-07-15T02:30:29;13.10;;;4.57;;
11189;SDS011;5651;50.926;4.718;2022-07-15T02:32:56;10.73;;;4.22;;
11189;SDS011;5651;50.926;4.718;2022-07-15T02:35:22;10.18;;;4.45;;
11189;SDS011;5651;50.926;4.718;2022-07-15T02:37:48;10.27;;;5.10;;
11189;SDS011;5651;50.926;4.718;2022-07-15T02:40:14;13.07;;;5.60;;
11189;SDS011;5651;50.926;4.718;2022-07-15T02:42:46;13.05;;;4.32;;
11189;SDS011;5651;50.926;4.718;2022-07-15T02:45:13;12.07;;;5.05;;
11189;SDS011;5651;50.926;4.718;2022-07-15T02:47:39;7.53;;;4.05;;
11189;SDS011;5651;50.926;4.718;2022-07-15T02:50:05;11.40;;;5.00;;
11189;SDS011;5651;50.926;4.718;2022-07-15T02:52:31;9.80;;;4.82;;
11189;SDS011;5651;50.926;4.718;2022-07-15T02:54:57;10.73;;;4.53;;
11189;SDS011;5651;50.926;4.718;2022-07-15T02:57:22;12.75;;;4.85;;
11189;SDS011;5651;50.926;4.718;2022-07-15T02:59:48;12.98;;;5.35;;
11189;SDS011;5651;50.926;4.718;2022-07-15T03:02:14;11.20;;;4.75;;
11189;SDS011;5651;50.926;4.718;2022-07-15T03:04:39;12.93;;;5.57;;
11189;SDS011;5651;50.926;4.718;2022-07-15T03:07:05;10.68;;;4.85;;
11189;SDS011;5651;50.926;4.718;2022-07-15T03:09:31;11.48;;;5.65;;
11189;SDS011;5651;50.926;4.718;2022-07-15T03:11:56;9.00;;;5.63;;
11189;SDS011;5651;50.926;4.718;2022-07-15T03:14:22;9.18;;;4.78;;
11189;SDS011;5651;50.926;4.718;2022-07-15T03:16:48;9.02;;;5.05;;
11189;SDS011;5651;50.926;4.718;2022-07-15T03:19:13;9.73;;;5.68;;
11189;SDS011;5651;50.926;4.718;2022-07-15T03:21:39;12.13;;;5.68;;
11189;SDS011;5651;50.926;4.718;2022-07-15T03:24:05;11.73;;;5.40;;
11189;SDS011;5651;50.926;4.718;2022-07-15T03:26:32;10.25;;;4.95;;
11189;SDS011;5651;50.926;4.718;2022-07-15T03:28:58;13.80;;;7.22;;
11189;SDS011;5651;50.926;4.718;2022-07-15T03:31:26;10.88;;;5.18;;
11189;SDS011;5651;50.926;4.718;2022-07-15T03:33:52;16.73;;;5.47;;
11189;SDS011;5651;50.926;4.718;2022-07-15T03:36:18;12.07;;;4.93;;
11189;SDS011;5651;50.926;4.718;2022-07-15T03:38:44;9.98;;;5.40;;
11189;SDS011;5651;50.926;4.718;2022-07-15T03:41:09;9.65;;;4.78;;
11189;SDS011;5651;50.926;4.718;2022-07-15T03:43:35;12.27;;;5.20;;
11189;SDS011;5651;50.926;4.718;2022-07-15T03:46:01;9.95;;;4.65;;
11189;SDS011;5651;50.926;4.718;2022-07-15T03:48:27;13.88;;;5.53;;
11189;SDS011;5651;50.926;4.718;2022-07-15T03:50:52;10.07;;;4.75;;
11189;SDS011;5651;50.926;4.718;2022-07-15T03:53:18;15.25;;;5.20;;
11189;SDS011;5651;50.926;4.718;2022-07-15T03:55:44;12.80;;;4.97;;
11189;SDS011;5651;50.926;4.718;2022-07-15T03:58:10;13.52;;;5.47;;
11189;SDS011;5651;50.926;4.718;2022-07-15T04:00:36;10.77;;;5.10;;
11189;SDS011;5651;50.926;4.718;2022-07-15T04:03:01;11.90;;;5.40;;
11189;SDS011;5651;50.926;4.718;2022-07-15T04:05:27;8.77;;;5.05;;
11189;SDS011;5651;50.926;4.718;2022-07-15T04:07:53;13.68;;;5.32;;
11189;SDS011;5651;50.926;4.718;2022-07-15T04:10:19;10.02;;;4.53;;
11189;SDS011;5651;50.926;4.718;2022-07-15T04:12:45;12.55;;;5.20;;
11189;SDS011;5651;50.926;4.718;2022-07-15T04:15:10;9.57;;;4.50;;
11189;SDS011;5651;50.926;4.718;2022-07-15T04:17:36;11.48;;;5.15;;
11189;SDS011;5651;50.926;4.718;2022-07-15T04:20:02;14.35;;;5.43;;
11189;SDS011;5651;50.926;4.718;2022-07-15T04:22:28;12.02;;;5.60;;
11189;SDS011;5651;50.926;4.718;2022-07-15T04:24:54;10.18;;;5.40;;
11189;SDS011;5651;50.926;4.718;2022-07-15T04:27:20;8.43;;;4.75;;
11189;SDS011;5651;50.926;4.718;2022-07-15T04:29:46;12.00;;;5.30;;
11189;SDS011;5651;50.926;4.718;2022-07-15T04:32:11;10.82;;;5.55;;
11189;SDS011;5651;50.926;4.718;2022-07-15T04:34:37;10.60;;;4.78;;
11189;SDS011;5651;50.926;4.718;2022-07-15T04:37:03;10.90;;;5.22;;
11189;SDS011;5651;50.926;4.718;2022-07-15T04:39:29;10.32;;;5.00;;
11189;SDS011;5651;50.926;4.718;2022-07-15T04:41:55;12.20;;;6.13;;
11189;SDS011;5651;50.926;4.718;2022-07-15T04:44:20;13.13;;;5.63;;
11189;SDS011;5651;50.926;4.718;2022-07-15T04:46:46;12.52;;;4.80;;
11189;SDS011;5651;50.926;4.718;2022-07-15T04:49:12;12.90;;;5.40;;
11189;SDS011;5651;50.926;4.718;2022-07-15T04:51:56;9.25;;;4.80;;
11189;SDS011;5651;50.926;4.718;2022-07-15T04:54:22;10.00;;;5.10;;
11189;SDS011;5651;50.926;4.718;2022-07-15T04:56:48;8.73;;;4.63;;
11189;SDS011;5651;50.926;4.718;2022-07-15T04:59:14;9.15;;;5.00;;
11189;SDS011;5651;50.926;4.718;2022-07-15T05:01:39;13.02;;;5.57;;
11189;SDS011;5651;50.926;4.718;2022-07-15T05:04:05;11.40;;;5.07;;
11189;SDS011;5651;50.926;4.718;2022-07-15T05:06:31;10.27;;;5.60;;
11189;SDS011;5651;50.926;4.718;2022-07-15T05:08:56;9.68;;;5.53;;
11189;SDS011;5651;50.926;4.718;2022-07-15T05:11:22;12.85;;;6.30;;
11189;SDS011;5651;50.926;4.718;2022-07-15T05:13:48;10.55;;;6.13;;
11189;SDS011;5651;50.926;4.718;2022-07-15T05:16:13;10.88;;;5.65;;
11189;SDS011;5651;50.926;4.718;2022-07-15T05:18:39;15.85;;;5.93;;
11189;SDS011;5651;50.926;4.718;2022-07-15T05:21:05;8.45;;;5.38;;
11189;SDS011;5651;50.926;4.718;2022-07-15T05:23:31;11.30;;;5.13;;
11189;SDS011;5651;50.926;4.718;2022-07-15T05:25:57;11.38;;;5.50;;
11189;SDS011;5651;50.926;4.718;2022-07-15T05:28:23;10.95;;;5.55;;
11189;SDS011;5651;50.926;4.718;2022-07-15T05:30:48;14.15;;;6.22;;
11189;SDS011;5651;50.926;4.718;2022-07-15T05:33:15;10.90;;;6.30;;
11189;SDS011;5651;50.926;4.718;2022-07-15T05:35:42;14.23;;;6.55;;
11189;SDS011;5651;50.926;4.718;2022-07-15T05:38:08;14.13;;;6.65;;
11189;SDS011;5651;50.926;4.718;2022-07-15T05:40:33;11.50;;;6.75;;
11189;SDS011;5651;50.926;4.718;2022-07-15T05:42:59;10.07;;;6.22;;
11189;SDS011;5651;50.926;4.718;2022-07-15T05:45:25;14.30;;;7.30;;
11189;SDS011;5651;50.926;4.718;2022-07-15T05:47:51;15.65;;;7.95;;
11189;SDS011;5651;50.926;4.718;2022-07-15T05:50:18;16.25;;;7.47;;
11189;SDS011;5651;50.926;4.718;2022-07-15T05:52:44;13.38;;;7.13;;
11189;SDS011;5651;50.926;4.718;2022-07-15T05:55:10;16.88;;;7.38;;
11189;SDS011;5651;50.926;4.718;2022-07-15T05:57:37;16.23;;;6.88;;
11189;SDS011;5651;50.926;4.718;2022-07-15T06:00:03;15.07;;;7.38;;
11189;SDS011;5651;50.926;4.718;2022-07-15T06:02:30;15.50;;;7.57;;
11189;SDS011;5651;50.926;4.718;2022-07-15T06:04:56;19.05;;;8.32;;
11189;SDS011;5651;50.926;4.718;2022-07-15T06:07:22;18.55;;;7.03;;
11189;SDS011;5651;50.926;4.718;2022-07-15T06:09:48;14.48;;;5.90;;
11189;SDS011;5651;50.926;4.718;2022-07-15T06:12:16;20.30;;;7.22;;
11189;SDS011;5651;50.926;4.718;2022-07-15T06:14:42;13.77;;;6.68;;
11189;SDS011;5651;50.926;4.718;2022-07-15T06:17:08;19.25;;;6.78;;
11189;SDS011;5651;50.926;4.718;2022-07-15T06:19:34;13.25;;;5.90;;
11189;SDS011;5651;50.926;4.718;2022-07-15T06:22:00;15.38;;;5.32;;
11189;SDS011;5651;50.926;4.718;2022-07-15T06:24:26;13.35;;;4.85;;
11189;SDS011;5651;50.926;4.718;2022-07-15T06:26:52;13.02;;;4.60;;
11189;SDS011;5651;50.926;4.718;2022-07-15T06:29:18;15.73;;;5.78;;
11189;SDS011;5651;50.926;4.718;2022-07-15T06:31:44;9.18;;;4.07;;
11189;SDS011;5651;50.926;4.718;2022-07-15T06:34:10;11.93;;;4.05;;
11189;SDS011;5651;50.926;4.718;2022-07-15T06:36:36;11.98;;;3.88;;
11189;SDS011;5651;50.926;4.718;2022-07-15T06:39:02;10.73;;;3.70;;
11189;SDS011;5651;50.926;4.718;2022-07-15T06:41:29;11.23;;;3.20;;
11189;SDS011;5651;50.926;4.718;2022-07-15T06:43:57;7.60;;;3.13;;
11189;SDS011;5651;50.926;4.718;2022-07-15T06:46:23;10.50;;;2.88;;
11189;SDS011;5651;50.926;4.718;2022-07-15T06:48:49;11.43;;;3.38;;
11189;SDS011;5651;50.926;4.718;2022-07-15T06:51:15;8.82;;;2.90;;
11189;SDS011;5651;50.926;4.718;2022-07-15T06:53:41;8.23;;;2.25;;
11189;SDS011;5651;50.926;4.718;2022-07-15T06:56:07;9.88;;;2.08;;
11189;SDS011;5651;50.926;4.718;2022-07-15T06:58:33;8.85;;;1.70;;
11189;SDS011;5651;50.926;4.718;2022-07-15T07:00:59;10.43;;;1.73;;
11189;SDS011;5651;50.926;4.718;2022-07-15T07:03:25;5.63;;;1.92;;
11189;SDS011;5651;50.926;4.718;2022-07-15T07:05:51;9.60;;;1.88;;
11189;SDS011;5651;50.926;4.718;2022-07-15T07:08:17;7.03;;;1.60;;
11189;SDS011;5651;50.926;4.718;2022-07-15T07:10:43;4.30;;;1.50;;
11189;SDS011;5651;50.926;4.718;2022-07-15T07:13:09;10.75;;;2.50;;
11189;SDS011;5651;50.926;4.718;2022-07-15T07:15:35;6.07;;;1.83;;
11189;SDS011;5651;50.926;4.718;2022-07-15T07:18:02;9.55;;;1.75;;
11189;SDS011;5651;50.926;4.718;2022-07-15T07:20:28;4.70;;;1.45;;
11189;SDS011;5651;50.926;4.718;2022-07-15T07:22:54;10.77;;;3.20;;
11189;SDS011;5651;50.926;4.718;2022-07-15T07:25:20;4.78;;;1.30;;
11189;SDS011;5651;50.926;4.718;2022-07-15T07:27:45;4.82;;;1.40;;
11189;SDS011;5651;50.926;4.718;2022-07-15T07:30:11;3.70;;;1.52;;
11189;SDS011;5651;50.926;4.718;2022-07-15T07:32:37;4.70;;;1.30;;
11189;SDS011;5651;50.926;4.718;2022-07-15T07:35:03;8.48;;;2.40;;
11189;SDS011;5651;50.926;4.718;2022-07-15T07:37:32;4.50;;;1.10;;
11189;SDS011;5651;50.926;4.718;2022-07-15T07:39:59;6.53;;;1.55;;
11189;SDS011;5651;50.926;4.718;2022-07-15T07:42:25;3.80;;;1.27;;
11189;SDS011;5651;50.926;4.718;2022-07-15T07:44:50;10.38;;;1.80;;
11189;SDS011;5651;50.926;4.718;2022-07-15T07:47:16;4.40;;;1.27;;
11189;SDS011;5651;50.926;4.718;2022-07-15T07:49:42;7.03;;;1.30;;
11189;SDS011;5651;50.926;4.718;2022-07-15T07:52:09;4.03;;;1.40;;
11189;SDS011;5651;50.926;4.718;2022-07-15T07:54:34;7.10;;;1.30;;
11189;SDS011;5651;50.926;4.718;2022-07-15T07:57:00;4.07;;;1.13;;
11189;SDS011;5651;50.926;4.718;2022-07-15T07:59:26;5.15;;;1.20;;
11189;SDS011;5651;50.926;4.718;2022-07-15T08:01:52;5.35;;;1.27;;
11189;SDS011;5651;50.926;4.718;2022-07-15T08:04:17;6.00;;;1.42;;
11189;SDS011;5651;50.926;4.718;2022-07-15T08:06:43;2.80;;;1.35;;
11189;SDS011;5651;50.926;4.718;2022-07-15T08:09:09;4.80;;;1.33;;
11189;SDS011;5651;50.926;4.718;2022-07-15T08:11:34;7.32;;;1.30;;
11189;SDS011;5651;50.926;4.718;2022-07-15T08:14:00;6.18;;;1.30;;
11189;SDS011;5651;50.926;4.718;2022-07-15T08:16:26;4.57;;;1.27;;
11189;SDS011;5651;50.926;4.718;2022-07-15T08:18:52;3.15;;;0.82;;
11189;SDS011;5651;50.926;4.718;2022-07-15T08:21:18;6.65;;;1.25;;
11189;SDS011;5651;50.926;4.718;2022-07-15T08:23:44;6.20;;;1.40;;
11189;SDS011;5651;50.926;4.718;2022-07-15T08:26:10;2.08;;;0.95;;
11189;SDS011;5651;50.926;4.718;2022-07-15T08:28:36;2.67;;;1.05;;
11189;SDS011;5651;50.926;4.718;2022-07-15T08:31:02;4.03;;;1.05;;
11189;SDS011;5651;50.926;4.718;2022-07-15T08:33:28;3.20;;;0.88;;
11189;SDS011;5651;50.926;4.718;2022-07-15T08:35:54;6.30;;;1.55;;
11189;SDS011;5651;50.926;4.718;2022-07-15T08:38:21;6.43;;;1.15;;
11189;SDS011;5651;50.926;4.718;2022-07-15T08:40:47;3.92;;;1.20;;
11189;SDS011;5651;50.926;4.718;2022-07-15T08:43:14;4.32;;;1.52;;
11189;SDS011;5651;50.926;4.718;2022-07-15T08:45:40;4.85;;;1.92;;
11189;SDS011;5651;50.926;4.718;2022-07-15T08:48:07;3.40;;;1.17;;
11189;SDS011;5651;50.926;4.718;2022-07-15T08:50:34;4.22;;;1.27;;
11189;SDS011;5651;50.926;4.718;2022-07-15T08:53:01;3.72;;;1.20;;
11189;SDS011;5651;50.926;4.718;2022-07-15T08:55:27;2.85;;;1.10;;
11189;SDS011;5651;50.926;4.718;2022-07-15T08:57:54;3.50;;;1.23;;
11189;SDS011;5651;50.926;4.718;2022-07-15T09:00:20;3.92;;;1.13;;
11189;SDS011;5651;50.926;4.718;2022-07-15T09:02:48;8.63;;;1.73;;
11189;SDS011;5651;50.926;4.718;2022-07-15T09:16:18;3.50;;;1.10;;
11189;SDS011;5651;50.926;4.718;2022-07-15T09:18:48;6.43;;;1.40;;
11189;SDS011;5651;50.926;4.718;2022-07-15T09:21:19;3.15;;;0.85;;
11189;SDS011;5651;50.926;4.718;2022-07-15T09:23:51;3.58;;;0.73;;
11189;SDS011;5651;50.926;4.718;2022-07-15T09:26:24;3.53;;;1.35;;
11189;SDS011;5651;50.926;4.718;2022-07-15T09:28:54;3.13;;;1.50;;
11189;SDS011;5651;50.926;4.718;2022-07-15T09:31:35;2.92;;;0.80;;
11189;SDS011;5651;50.926;4.718;2022-07-15T09:34:22;3.80;;;1.50;;
11189;SDS011;5651;50.926;4.718;2022-07-15T09:36:49;2.83;;;1.00;;
11189;SDS011;5651;50.926;4.718;2022-07-15T09:39:18;1.80;;;0.82;;
11189;SDS011;5651;50.926;4.718;2022-07-15T09:41:45;8.15;;;0.95;;
11189;SDS011;5651;50.926;4.718;2022-07-15T09:44:13;4.30;;;1.20;;
11189;SDS011;5651;50.926;4.718;2022-07-15T09:46:47;4.10;;;1.10;;
11189;SDS011;5651;50.926;4.718;2022-07-15T09:49:17;1.80;;;0.95;;
11189;SDS011;5651;50.926;4.718;2022-07-15T09:54:32;3.33;;;1.20;;
11189;SDS011;5651;50.926;4.718;2022-07-15T09:57:01;3.55;;;0.88;;
11189;SDS011;5651;50.926;4.718;2022-07-15T09:59:29;3.53;;;1.13;;
11189;SDS011;5651;50.926;4.718;2022-07-15T10:01:55;5.13;;;1.20;;
11189;SDS011;5651;50.926;4.718;2022-07-15T10:04:23;2.95;;;1.02;;
11189;SDS011;5651;50.926;4.718;2022-07-15T10:06:51;4.32;;;1.20;;
11189;SDS011;5651;50.926;4.718;2022-07-15T10:09:20;4.85;;;1.65;;
11189;SDS011;5651;50.926;4.718;2022-07-15T10:11:48;2.42;;;0.85;;
11189;SDS011;5651;50.926;4.718;2022-07-15T10:14:33;4.40;;;1.20;;
11189;SDS011;5651;50.926;4.718;2022-07-15T10:26:03;3.22;;;1.08;;
11189;SDS011;5651;50.926;4.718;2022-07-15T10:28:57;3.72;;;1.23;;
11189;SDS011;5651;50.926;4.718;2022-07-15T10:31:30;4.43;;;1.02;;
11189;SDS011;5651;50.926;4.718;2022-07-15T10:37:11;2.30;;;1.05;;
11189;SDS011;5651;50.926;4.718;2022-07-15T10:42:00;3.47;;;1.13;;
11189;SDS011;5651;50.926;4.718;2022-07-15T10:44:29;3.50;;;1.15;;
11189;SDS011;5651;50.926;4.718;2022-07-15T10:49:38;3.78;;;1.10;;
11189;SDS011;5651;50.926;4.718;2022-07-15T10:52:12;3.92;;;1.00;;
11189;SDS011;5651;50.926;4.718;2022-07-15T10:54:42;2.70;;;0.93;;
11189;SDS011;5651;50.926;4.718;2022-07-15T10:57:12;5.93;;;1.00;;
11189;SDS011;5651;50.926;4.718;2022-07-15T10:59:50;6.88;;;1.10;;
11189;SDS011;5651;50.926;4.718;2022-07-15T11:02:18;3.55;;;1.23;;
11189;SDS011;5651;50.926;4.718;2022-07-15T11:04:46;3.10;;;0.90;;
11189;SDS011;5651;50.926;4.718;2022-07-15T11:15:16;2.28;;;0.88;;
11189;SDS011;5651;50.926;4.718;2022-07-15T11:17:46;3.00;;;0.63;;
11189;SDS011;5651;50.926;4.718;2022-07-15T11:20:17;2.25;;;0.88;;
11189;SDS011;5651;50.926;4.718;2022-07-15T11:22:54;2.78;;;0.80;;
11189;SDS011;5651;50.926;4.718;2022-07-15T11:25:26;3.25;;;1.27;;
11189;SDS011;5651;50.926;4.718;2022-07-15T11:28:11;2.88;;;0.98;;
11189;SDS011;5651;50.926;4.718;2022-07-15T11:30:43;1.05;;;0.60;;
11189;SDS011;5651;50.926;4.718;2022-07-15T11:33:19;2.10;;;0.90;;
11189;SDS011;5651;50.926;4.718;2022-07-15T11:38:14;2.13;;;0.93;;
11189;SDS011;5651;50.926;4.718;2022-07-15T11:40:45;2.85;;;1.23;;
11189;SDS011;5651;50.926;4.718;2022-07-15T11:43:34;1.90;;;0.90;;
11189;SDS011;5651;50.926;4.718;2022-07-15T11:46:19;2.15;;;0.88;;
11189;SDS011;5651;50.926;4.718;2022-07-15T11:48:47;3.97;;;1.25;;
11189;SDS011;5651;50.926;4.718;2022-07-15T11:51:13;4.32;;;1.33;;
11189;SDS011;5651;50.926;4.718;2022-07-15T11:53:42;4.95;;;1.55;;
11189;SDS011;5651;50.926;4.718;2022-07-15T11:56:10;3.88;;;1.02;;
11189;SDS011;5651;50.926;4.718;2022-07-15T11:58:49;4.13;;;1.48;;
11189;SDS011;5651;50.926;4.718;2022-07-15T12:01:21;5.00;;;1.00;;
11189;SDS011;5651;50.926;4.718;2022-07-15T12:03:49;5.60;;;1.05;;
11189;SDS011;5651;50.926;4.718;2022-07-15T12:06:21;2.67;;;1.05;;
11189;SDS011;5651;50.926;4.718;2022-07-15T12:08:52;2.10;;;0.70;;
11189;SDS011;5651;50.926;4.718;2022-07-15T12:11:27;3.88;;;1.30;;
11189;SDS011;5651;50.926;4.718;2022-07-15T12:13:57;2.50;;;0.98;;
11189;SDS011;5651;50.926;4.718;2022-07-15T12:19:04;3.42;;;1.38;;
11189;SDS011;5651;50.926;4.718;2022-07-15T12:21:42;3.05;;;1.70;;
11189;SDS011;5651;50.926;4.718;2022-07-15T12:24:10;3.47;;;0.80;;
11189;SDS011;5651;50.926;4.718;2022-07-15T12:29:17;2.67;;;1.33;;
11189;SDS011;5651;50.926;4.718;2022-07-15T12:31:51;2.22;;;0.80;;
11189;SDS011;5651;50.926;4.718;2022-07-15T12:34:18;4.28;;;1.08;;
11189;SDS011;5651;50.926;4.718;2022-07-15T12:36:53;1.85;;;1.00;;
11189;SDS011;5651;50.926;4.718;2022-07-15T12:39:21;2.92;;;1.02;;
11189;SDS011;5651;50.926;4.718;2022-07-15T12:41:57;3.35;;;1.00;;
11189;SDS011;5651;50.926;4.718;2022-07-15T12:44:27;3.80;;;0.93;;
11189;SDS011;5651;50.926;4.718;2022-07-15T12:46:55;5.10;;;1.65;;
11189;SDS011;5651;50.926;4.718;2022-07-15T12:49:38;5.90;;;1.48;;
11189;SDS011;5651;50.926;4.718;2022-07-15T12:52:34;7.95;;;2.17;;
11189;SDS011;5651;50.926;4.718;2022-07-15T12:55:17;3.75;;;1.17;;
11189;SDS011;5651;50.926;4.718;2022-07-15T12:57:45;2.83;;;1.20;;
11189;SDS011;5651;50.926;4.718;2022-07-15T13:05:44;5.88;;;1.30;;
11189;SDS011;5651;50.926;4.718;2022-07-15T13:08:18;4.13;;;1.50;;
11189;SDS011;5651;50.926;4.718;2022-07-15T13:10:47;4.20;;;1.52;;
11189;SDS011;5651;50.926;4.718;2022-07-15T13:13:17;5.53;;;1.63;;
11189;SDS011;5651;50.926;4.718;2022-07-15T13:15:44;3.35;;;1.50;;
11189;SDS011;5651;50.926;4.718;2022-07-15T13:18:11;5.75;;;1.63;;
11189;SDS011;5651;50.926;4.718;2022-07-15T13:20:39;3.35;;;1.83;;
11189;SDS011;5651;50.926;4.718;2022-07-15T13:23:05;3.47;;;1.73;;
11189;SDS011;5651;50.926;4.718;2022-07-15T13:25:32;6.30;;;2.20;;
11189;SDS011;5651;50.926;4.718;2022-07-15T13:28:01;3.55;;;1.70;;
11189;SDS011;5651;50.926;4.718;2022-07-15T13:30:27;3.67;;;1.60;;
11189;SDS011;5651;50.926;4.718;2022-07-15T13:32:53;4.78;;;1.83;;
11189;SDS011;5651;50.926;4.718;2022-07-15T13:35:19;3.40;;;1.60;;
11189;SDS011;5651;50.926;4.718;2022-07-15T13:37:45;3.28;;;1.83;;
11189;SDS011;5651;50.926;4.718;2022-07-15T13:40:11;2.97;;;1.98;;
11189;SDS011;5651;50.926;4.718;2022-07-15T13:42:38;3.22;;;1.52;;
11189;SDS011;5651;50.926;4.718;2022-07-15T13:45:05;3.42;;;1.80;;
11189;SDS011;5651;50.926;4.718;2022-07-15T13:47:32;4.45;;;1.88;;
11189;SDS011;5651;50.926;4.718;2022-07-15T13:49:57;4.85;;;2.10;;
11189;SDS011;5651;50.926;4.718;2022-07-15T13:52:43;4.50;;;1.52;;
11189;SDS011;5651;50.926;4.718;2022-07-15T13:55:10;2.70;;;1.30;;
11189;SDS011;5651;50.926;4.718;2022-07-15T13:57:37;3.47;;;1.27;;
11189;SDS011;5651;50.926;4.718;2022-07-15T14:00:04;3.20;;;1.52;;
11189;SDS011;5651;50.926;4.718;2022-07-15T14:02:32;4.53;;;1.60;;
11189;SDS011;5651;50.926;4.718;2022-07-15T14:04:57;5.68;;;1.60;;
11189;SDS011;5651;50.926;4.718;2022-07-15T14:07:23;5.72;;;1.48;;
11189;SDS011;5651;50.926;4.718;2022-07-15T14:09:49;3.13;;;1.90;;
11189;SDS011;5651;50.926;4.718;2022-07-15T14:12:14;4.68;;;1.50;;
11189;SDS011;5651;50.926;4.718;2022-07-15T14:14:40;4.95;;;1.40;;
11189;SDS011;5651;50.926;4.718;2022-07-15T14:17:06;6.07;;;1.80;;
11189;SDS011;5651;50.926;4.718;2022-07-15T14:19:32;4.82;;;1.40;;
11189;SDS011;5651;50.926;4.718;2022-07-15T14:21:57;2.70;;;1.50;;
11189;SDS011;5651;50.926;4.718;2022-07-15T14:24:23;6.05;;;1.40;;
11189;SDS011;5651;50.926;4.718;2022-07-15T14:26:49;6.13;;;1.40;;
11189;SDS011;5651;50.926;4.718;2022-07-15T14:29:15;3.97;;;1.70;;
11189;SDS011;5651;50.926;4.718;2022-07-15T14:31:40;2.88;;;1.17;;
11189;SDS011;5651;50.926;4.718;2022-07-15T14:34:06;3.80;;;1.65;;
11189;SDS011;5651;50.926;4.718;2022-07-15T14:36:33;2.92;;;1.40;;
11189;SDS011;5651;50.926;4.718;2022-07-15T14:38:58;4.32;;;1.42;;
11189;SDS011;5651;50.926;4.718;2022-07-15T14:41:24;3.72;;;1.38;;
11189;SDS011;5651;50.926;4.718;2022-07-15T14:43:50;2.47;;;1.63;;
11189;SDS011;5651;50.926;4.718;2022-07-15T14:46:15;4.40;;;1.27;;
11189;SDS011;5651;50.926;4.718;2022-07-15T14:48:41;6.80;;;1.58;;
11189;SDS011;5651;50.926;4.718;2022-07-15T14:51:07;3.25;;;1.25;;
11189;SDS011;5651;50.926;4.718;2022-07-15T14:53:33;3.90;;;1.20;;
11189;SDS011;5651;50.926;4.718;2022-07-15T14:55:58;3.17;;;1.40;;
11189;SDS011;5651;50.926;4.718;2022-07-15T14:58:24;5.93;;;1.25;;
11189;SDS011;5651;50.926;4.718;2022-07-15T15:00:50;2.40;;;1.13;;
11189;SDS011;5651;50.926;4.718;2022-07-15T15:03:16;4.65;;;1.40;;
11189;SDS011;5651;50.926;4.718;2022-07-15T15:05:42;3.63;;;1.30;;
11189;SDS011;5651;50.926;4.718;2022-07-15T15:08:09;1.55;;;1.20;;
11189;SDS011;5651;50.926;4.718;2022-07-15T15:10:34;2.10;;;1.10;;
11189;SDS011;5651;50.926;4.718;2022-07-15T15:13:00;4.68;;;1.52;;
11189;SDS011;5651;50.926;4.718;2022-07-15T15:15:26;4.28;;;1.33;;
11189;SDS011;5651;50.926;4.718;2022-07-15T15:17:52;3.20;;;1.25;;
11189;SDS011;5651;50.926;4.718;2022-07-15T15:20:18;2.15;;;1.27;;
11189;SDS011;5651;50.926;4.718;2022-07-15T15:22:44;3.88;;;1.48;;
11189;SDS011;5651;50.926;4.718;2022-07-15T15:25:10;2.63;;;1.20;;
11189;SDS011;5651;50.926;4.718;2022-07-15T15:27:37;2.15;;;1.40;;
11189;SDS011;5651;50.926;4.718;2022-07-15T15:30:04;5.25;;;1.70;;
11189;SDS011;5651;50.926;4.718;2022-07-15T15:32:30;2.30;;;1.40;;
11189;SDS011;5651;50.926;4.718;2022-07-15T15:34:56;5.47;;;1.67;;
11189;SDS011;5651;50.926;4.718;2022-07-15T15:37:22;3.85;;;1.40;;
11189;SDS011;5651;50.926;4.718;2022-07-15T15:39:48;3.90;;;1.85;;
11189;SDS011;5651;50.926;4.718;2022-07-15T15:42:14;2.20;;;1.45;;
11189;SDS011;5651;50.926;4.718;2022-07-15T15:44:40;1.58;;;1.20;;
11189;SDS011;5651;50.926;4.718;2022-07-15T15:47:06;4.70;;;1.23;;
11189;SDS011;5651;50.926;4.718;2022-07-15T15:49:33;6.20;;;1.70;;
11189;SDS011;5651;50.926;4.718;2022-07-15T15:52:02;4.72;;;1.50;;
11189;SDS011;5651;50.926;4.718;2022-07-15T15:54:29;4.20;;;1.58;;